Concord Buchanan Field Airport

About
Name: Concord Buchanan Field Airport
Identifier:  CCR/KCCR
Serves:  Contra Costa County, California
Owner:  Contra Costa County
Public/Private:  Public
Local Time:  22. Sep 03:17 PDT
Description: Buchanan Field Airport is a public airport in Contra Costa County, California,[3] a mile west of the center of Concord[1][3] and east of Pacheco. The airport's street address is 550 Sally Ride Drive, Concord.[2]
Source: Wikipedia
Location
Runways
Identifier Length (m/ft) Surface
1L/19R 5,001/5,001 Asphalt/Concrete
1R/19L 2,770/2,770 Asphalt
14L/32R 4,602/4,602 Asphalt/Concrete
14R/32L 2,799/2,799 Asphalt
Statistics
Flights per Day:
0 flights
Distance: 31km (19mi)
Flights delayed:
0% (0 flights per day delayed)
Delay Average: 30 minutes
Current Weather
 17 C (Humidity: 55%)
  0kt (0km/h / 0mph) from 0°
  16km (10 mi.)
 
 METAR KCCR 220953Z 00000KT 10SM CLR 17/08 A2990 RMK AO2 SLP110 T01670083

Current Delays

Departures
N/A
Arrivals
N/A

Destinations

Top Destinations
Airport Flights
per week
Seats
per week
  Sacramento (MCC) 0 - 0 0
  Napa (APC) 0 - 0 0

Airlines & Planes

Top Airlines
Airline Flights
per Day
Seats
per Day
Calstar 0 -
Gama Aviation 0 -
Top Plane Types
Model Flights Seats
Beech B300 Super King Air 350 0.0/day - 0
Beech B200 Super King Air 0.0/day - 0